EPKT/KTW METAR and TAF weather

Enter ICAO airport designator
Station Type Date Time Source
EPKT METAR 2019/06/17 12:30 UTC NOAA

EPKT 171230Z 01007KT 310V070 CAVOK 24/08 Q1021


Station Type Date Time Source
EPKT Decoded METAR 2019/06/17 12:30 UTC NOAA

Katowice, Poland (EPKT) 50-14N 019-02E 284M
Jun 17, 2019 - 08:30 AM EDT / 2019.06.17 1230 UTC
Wind: from the N (010 degrees) at 8 MPH (7 KT) (direction variable):0
Visibility: greater than 7 mile(s):0
Temperature: 75 F (24 C)
Dew Point: 46 F (8 C)
Relative Humidity: 35%
Pressure (altimeter): 30.15 in. Hg (1021 hPa)
ob: EPKT 171230Z 01007KT 310V070 CAVOK 24/08 Q1021
cycle: 12

Station Type Date Time Source
EPKT TAF 2019/06/17 12:33 UTC NOAA

TAF EPKT 171130Z 1712/1812 34008KT CAVOK

Example: see airport list